sensor_id;sensor_type;location;lat;lon;timestamp;pressure;altitude;pressure_sealevel;temperature;humidity
43503;BME280;29098;48.184;16.298;2024-01-10T00:01:23;100939.84;;;-8.21;100.00
43503;BME280;29098;48.184;16.298;2024-01-10T00:03:53;100943.06;;;-8.07;100.00
43503;BME280;29098;48.184;16.298;2024-01-10T00:06:19;100911.59;;;-8.12;100.00
43503;BME280;29098;48.184;16.298;2024-01-10T00:08:45;100903.34;;;-8.33;100.00
43503;BME280;29098;48.184;16.298;2024-01-10T00:11:11;100931.78;;;-7.93;100.00
43503;BME280;29098;48.184;16.298;2024-01-10T00:13:36;100960.16;;;-8.09;100.00
43503;BME280;29098;48.184;16.298;2024-01-10T00:16:03;100949.00;;;-8.05;100.00
43503;BME280;29098;48.184;16.298;2024-01-10T00:18:28;100927.25;;;-8.34;100.00
43503;BME280;29098;48.184;16.298;2024-01-10T00:20:54;100950.66;;;-8.02;100.00
43503;BME280;29098;48.184;16.298;2024-01-10T00:23:21;100949.00;;;-8.05;100.00
43503;BME280;29098;48.184;16.298;2024-01-10T00:25:47;100920.03;;;-8.07;100.00
43503;BME280;29098;48.184;16.298;2024-01-10T00:28:13;100933.78;;;-8.14;100.00
43503;BME280;29098;48.184;16.298;2024-01-10T00:30:39;100951.53;;;-8.02;100.00
43503;BME280;29098;48.184;16.298;2024-01-10T00:33:05;100916.81;;;-8.21;100.00
43503;BME280;29098;48.184;16.298;2024-01-10T00:35:31;100937.28;;;-8.21;100.00
43503;BME280;29098;48.184;16.298;2024-01-10T00:37:57;100903.41;;;-8.37;100.00
43503;BME280;29098;48.184;16.298;2024-01-10T00:40:23;100923.75;;;-8.30;100.00
43503;BME280;29098;48.184;16.298;2024-01-10T00:42:49;100943.13;;;-8.12;100.00
43503;BME280;29098;48.184;16.298;2024-01-10T00:45:15;100942.47;;;-8.25;100.00
43503;BME280;29098;48.184;16.298;2024-01-10T00:47:41;100947.53;;;-8.21;100.00
43503;BME280;29098;48.184;16.298;2024-01-10T00:50:07;100940.69;;;-8.19;100.00
43503;BME280;29098;48.184;16.298;2024-01-10T00:52:33;100951.81;;;-8.22;100.00
43503;BME280;29098;48.184;16.298;2024-01-10T00:54:58;100950.94;;;-8.22;100.00
43503;BME280;29098;48.184;16.298;2024-01-10T00:57:24;100932.91;;;-8.12;100.00
43503;BME280;29098;48.184;16.298;2024-01-10T00:59:50;100948.09;;;-8.02;100.00
43503;BME280;29098;48.184;16.298;2024-01-10T01:02:16;100925.50;;;-8.30;100.00
43503;BME280;29098;48.184;16.298;2024-01-10T01:04:42;100884.56;;;-8.30;100.00
43503;BME280;29098;48.184;16.298;2024-01-10T01:07:08;100952.78;;;-8.31;100.00
43503;BME280;29098;48.184;16.298;2024-01-10T01:09:34;100917.34;;;-8.56;100.00
43503;BME280;29098;48.184;16.298;2024-01-10T01:11:59;100892.47;;;-8.47;100.00
43503;BME280;29098;48.184;16.298;2024-01-10T01:14:25;100964.91;;;-8.45;100.00
43503;BME280;29098;48.184;16.298;2024-01-10T01:16:51;100962.19;;;-8.33;100.00
43503;BME280;29098;48.184;16.298;2024-01-10T01:19:17;100959.66;;;-8.36;100.00
43503;BME280;29098;48.184;16.298;2024-01-10T01:21:43;100924.94;;;-8.51;100.00
43503;BME280;29098;48.184;16.298;2024-01-10T01:24:08;100938.50;;;-8.47;100.00
43503;BME280;29098;48.184;16.298;2024-01-10T01:26:34;100961.38;;;-8.36;100.00
43503;BME280;29098;48.184;16.298;2024-01-10T01:29:00;100935.94;;;-8.47;100.00
43503;BME280;29098;48.184;16.298;2024-01-10T01:31:26;100917.09;;;-8.42;100.00
43503;BME280;29098;48.184;16.298;2024-01-10T01:33:51;100963.06;;;-8.34;100.00
43503;BME280;29098;48.184;16.298;2024-01-10T01:36:17;100941.06;;;-8.49;100.00
43503;BME280;29098;48.184;16.298;2024-01-10T01:38:43;100889.41;;;-8.70;100.00
43503;BME280;29098;48.184;16.298;2024-01-10T01:41:09;100962.28;;;-8.41;100.00
43503;BME280;29098;48.184;16.298;2024-01-10T01:43:35;100951.25;;;-8.44;100.00
43503;BME280;29098;48.184;16.298;2024-01-10T01:46:02;100952.97;;;-8.43;100.00
43503;BME280;29098;48.184;16.298;2024-01-10T01:48:29;100918.47;;;-8.77;100.00
43503;BME280;29098;48.184;16.298;2024-01-10T01:50:57;100956.47;;;-8.50;100.00
43503;BME280;29098;48.184;16.298;2024-01-10T01:53:23;100893.94;;;-8.94;100.00
43503;BME280;29098;48.184;16.298;2024-01-10T01:55:49;100953.94;;;-8.52;100.00
43503;BME280;29098;48.184;16.298;2024-01-10T01:58:15;100953.84;;;-8.47;100.00
43503;BME280;29098;48.184;16.298;2024-01-10T02:00:41;100897.41;;;-8.96;100.00
43503;BME280;29098;48.184;16.298;2024-01-10T02:03:09;100903.06;;;-8.74;100.00
43503;BME280;29098;48.184;16.298;2024-01-10T02:05:35;100914.22;;;-8.79;100.00
43503;BME280;29098;48.184;16.298;2024-01-10T02:08:01;100893.59;;;-8.67;100.00
43503;BME280;29098;48.184;16.298;2024-01-10T02:10:26;100958.31;;;-8.62;100.00
43503;BME280;29098;48.184;16.298;2024-01-10T02:12:52;100917.69;;;-8.84;100.00
43503;BME280;29098;48.184;16.298;2024-01-10T02:15:18;100913.41;;;-8.83;100.00
43503;BME280;29098;48.184;16.298;2024-01-10T02:17:44;100950.72;;;-8.68;100.00
43503;BME280;29098;48.184;16.298;2024-01-10T02:20:14;100916.84;;;-8.86;100.00
43503;BME280;29098;48.184;16.298;2024-01-10T02:22:43;100866.72;;;-8.96;100.00
43503;BME280;29098;48.184;16.298;2024-01-10T02:25:09;100897.97;;;-8.75;100.00
43503;BME280;29098;48.184;16.298;2024-01-10T02:27:38;100903.13;;;-8.77;100.00
43503;BME280;29098;48.184;16.298;2024-01-10T02:30:06;100945.22;;;-8.39;100.00
43503;BME280;29098;48.184;16.298;2024-01-10T02:32:32;100932.16;;;-8.83;100.00
43503;BME280;29098;48.184;16.298;2024-01-10T02:34:58;100955.19;;;-8.84;100.00
43503;BME280;29098;48.184;16.298;2024-01-10T02:37:24;100899.09;;;-8.95;100.00
43503;BME280;29098;48.184;16.298;2024-01-10T02:39:49;100920.22;;;-8.82;100.00
43503;BME280;29098;48.184;16.298;2024-01-10T02:42:16;100944.91;;;-8.79;100.00
43503;BME280;29098;48.184;16.298;2024-01-10T02:44:42;100873.84;;;-9.23;100.00
43503;BME280;29098;48.184;16.298;2024-01-10T02:47:08;100947.34;;;-8.69;100.00
43503;BME280;29098;48.184;16.298;2024-01-10T02:49:33;100934.50;;;-8.64;100.00
43503;BME280;29098;48.184;16.298;2024-01-10T02:51:59;100925.47;;;-8.95;100.00
43503;BME280;29098;48.184;16.298;2024-01-10T02:54:25;100849.34;;;-9.38;100.00
43503;BME280;29098;48.184;16.298;2024-01-10T02:56:51;100933.00;;;-8.81;100.00
43503;BME280;29098;48.184;16.298;2024-01-10T02:59:16;100894.97;;;-9.09;100.00
43503;BME280;29098;48.184;16.298;2024-01-10T03:01:42;100849.97;;;-9.22;100.00
43503;BME280;29098;48.184;16.298;2024-01-10T03:04:07;100839.75;;;-9.22;100.00
43503;BME280;29098;48.184;16.298;2024-01-10T03:06:33;100911.94;;;-9.03;100.00
43503;BME280;29098;48.184;16.298;2024-01-10T03:08:59;100912.56;;;-8.84;100.00
43503;BME280;29098;48.184;16.298;2024-01-10T03:11:24;100934.63;;;-8.73;100.00
43503;BME280;29098;48.184;16.298;2024-01-10T03:13:53;100938.06;;;-8.76;100.00
43503;BME280;29098;48.184;16.298;2024-01-10T03:16:25;100946.47;;;-8.69;100.00
43503;BME280;29098;48.184;16.298;2024-01-10T03:18:50;100901.56;;;-8.89;100.00
43503;BME280;29098;48.184;16.298;2024-01-10T03:21:17;100880.34;;;-8.97;100.00
43503;BME280;29098;48.184;16.298;2024-01-10T03:23:48;100916.00;;;-8.85;100.00
43503;BME280;29098;48.184;16.298;2024-01-10T03:26:13;100926.44;;;-9.06;100.00
43503;BME280;29098;48.184;16.298;2024-01-10T03:28:39;100868.56;;;-9.08;100.00
43503;BME280;29098;48.184;16.298;2024-01-10T03:31:05;100885.44;;;-8.97;100.00
43503;BME280;29098;48.184;16.298;2024-01-10T03:33:30;100901.59;;;-8.92;100.00
43503;BME280;29098;48.184;16.298;2024-01-10T03:35:56;100912.75;;;-8.99;100.00
43503;BME280;29098;48.184;16.298;2024-01-10T03:38:21;100943.13;;;-8.74;100.00
43503;BME280;29098;48.184;16.298;2024-01-10T03:40:47;100941.53;;;-8.82;100.00
43503;BME280;29098;48.184;16.298;2024-01-10T03:43:13;100906.00;;;-9.05;100.00
43503;BME280;29098;48.184;16.298;2024-01-10T03:45:38;100890.56;;;-8.97;100.00
43503;BME280;29098;48.184;16.298;2024-01-10T03:48:05;100866.16;;;-9.20;100.00
43503;BME280;29098;48.184;16.298;2024-01-10T03:50:31;100948.41;;;-8.87;100.00
43503;BME280;29098;48.184;16.298;2024-01-10T03:52:56;100917.75;;;-8.90;100.00
43503;BME280;29098;48.184;16.298;2024-01-10T03:55:21;100910.94;;;-8.91;100.00
43503;BME280;29098;48.184;16.298;2024-01-10T03:57:47;100940.72;;;-8.85;100.00
43503;BME280;29098;48.184;16.298;2024-01-10T04:00:13;100886.25;;;-8.94;100.00
43503;BME280;29098;48.184;16.298;2024-01-10T04:02:38;100908.19;;;-8.75;100.00
43503;BME280;29098;48.184;16.298;2024-01-10T04:05:08;100889.63;;;-8.88;100.00
43503;BME280;29098;48.184;16.298;2024-01-10T04:07:39;100885.38;;;-8.88;100.00
43503;BME280;29098;48.184;16.298;2024-01-10T04:10:07;100925.16;;;-8.67;100.00
43503;BME280;29098;48.184;16.298;2024-01-10T04:12:36;100892.22;;;-8.93;100.00
43503;BME280;29098;48.184;16.298;2024-01-10T04:15:03;100940.44;;;-8.62;100.00
43503;BME280;29098;48.184;16.298;2024-01-10T04:17:29;100901.81;;;-9.11;100.00
43503;BME280;29098;48.184;16.298;2024-01-10T04:19:55;100927.78;;;-8.74;100.00
43503;BME280;29098;48.184;16.298;2024-01-10T04:22:20;100939.84;;;-8.86;100.00
43503;BME280;29098;48.184;16.298;2024-01-10T04:24:46;100866.09;;;-9.15;100.00
43503;BME280;29098;48.184;16.298;2024-01-10T04:27:12;100883.00;;;-9.05;100.00
43503;BME280;29098;48.184;16.298;2024-01-10T04:29:37;100856.75;;;-9.16;100.00
43503;BME280;29098;48.184;16.298;2024-01-10T04:32:03;100892.19;;;-8.88;100.00
43503;BME280;29098;48.184;16.298;2024-01-10T04:34:29;100914.16;;;-8.73;100.00
43503;BME280;29098;48.184;16.298;2024-01-10T04:36:55;100901.59;;;-8.92;100.00
43503;BME280;29098;48.184;16.298;2024-01-10T04:39:21;100923.53;;;-8.75;100.00
43503;BME280;29098;48.184;16.298;2024-01-10T04:41:46;100890.50;;;-8.89;100.00
43503;BME280;29098;48.184;16.298;2024-01-10T04:44:12;100873.66;;;-9.04;100.00
43503;BME280;29098;48.184;16.298;2024-01-10T04:46:38;100919.41;;;-8.84;100.00
43503;BME280;29098;48.184;16.298;2024-01-10T04:49:03;100872.78;;;-9.06;100.00
43503;BME280;29098;48.184;16.298;2024-01-10T04:51:29;100932.31;;;-8.98;100.00
43503;BME280;29098;48.184;16.298;2024-01-10T04:53:54;100856.78;;;-9.21;100.00
43503;BME280;29098;48.184;16.298;2024-01-10T04:56:21;100929.75;;;-8.95;100.00
43503;BME280;29098;48.184;16.298;2024-01-10T04:58:46;100852.63;;;-9.30;100.00
43503;BME280;29098;48.184;16.298;2024-01-10T05:01:12;100918.53;;;-8.83;100.00
43503;BME280;29098;48.184;16.298;2024-01-10T05:03:38;100887.38;;;-9.13;100.00
43503;BME280;29098;48.184;16.298;2024-01-10T05:06:03;100942.59;;;-9.01;100.00
43503;BME280;29098;48.184;16.298;2024-01-10T05:08:30;100930.53;;;-8.90;100.00
43503;BME280;29098;48.184;16.298;2024-01-10T05:10:55;100907.69;;;-9.05;100.00
43503;BME280;29098;48.184;16.298;2024-01-10T05:13:21;100863.63;;;-9.23;100.00
43503;BME280;29098;48.184;16.298;2024-01-10T05:15:46;100890.91;;;-9.28;100.00
43503;BME280;29098;48.184;16.298;2024-01-10T05:18:12;100865.38;;;-9.27;100.00
43503;BME280;29098;48.184;16.298;2024-01-10T05:20:38;100892.53;;;-9.18;100.00
43503;BME280;29098;48.184;16.298;2024-01-10T05:23:03;100921.09;;;-8.85;100.00
43503;BME280;29098;48.184;16.298;2024-01-10T05:25:29;100866.19;;;-9.23;100.00
43503;BME280;29098;48.184;16.298;2024-01-10T05:27:55;100882.06;;;-8.98;100.00
43503;BME280;29098;48.184;16.298;2024-01-10T05:30:20;100862.00;;;-9.30;100.00
43503;BME280;29098;48.184;16.298;2024-01-10T05:32:46;100925.56;;;-9.02;100.00
43503;BME280;29098;48.184;16.298;2024-01-10T05:35:12;100902.81;;;-9.24;100.00
43503;BME280;29098;48.184;16.298;2024-01-10T05:37:37;100904.38;;;-9.14;100.00
43503;BME280;29098;48.184;16.298;2024-01-10T05:40:04;100895.84;;;-9.13;100.00
43503;BME280;29098;48.184;16.298;2024-01-10T05:42:32;100833.53;;;-9.76;100.00
43503;BME280;29098;48.184;16.298;2024-01-10T05:45:00;100913.03;;;-9.24;100.00
43503;BME280;29098;48.184;16.298;2024-01-10T05:47:25;100928.28;;;-9.18;100.00
43503;BME280;29098;48.184;16.298;2024-01-10T05:49:51;100797.84;;;-9.82;100.00
43503;BME280;29098;48.184;16.298;2024-01-10T05:52:18;100872.31;;;-9.40;100.00
43503;BME280;29098;48.184;16.298;2024-01-10T05:54:44;100902.91;;;-9.37;100.00
43503;BME280;29098;48.184;16.298;2024-01-10T05:57:10;100860.41;;;-9.41;100.00
43503;BME280;29098;48.184;16.298;2024-01-10T05:59:36;100815.59;;;-9.70;100.00
43503;BME280;29098;48.184;16.298;2024-01-10T06:02:02;100874.88;;;-9.38;100.00
43503;BME280;29098;48.184;16.298;2024-01-10T06:04:28;100849.34;;;-9.38;100.00
43503;BME280;29098;48.184;16.298;2024-01-10T06:07:00;100907.91;;;-9.26;100.00
43503;BME280;29098;48.184;16.298;2024-01-10T06:09:28;100890.91;;;-9.25;100.00
43503;BME280;29098;48.184;16.298;2024-01-10T06:11:57;100833.47;;;-9.70;100.00
43503;BME280;29098;48.184;16.298;2024-01-10T06:14:22;100863.09;;;-9.52;100.00
43503;BME280;29098;48.184;16.298;2024-01-10T06:16:48;100886.81;;;-9.42;100.00
43503;BME280;29098;48.184;16.298;2024-01-10T06:19:13;100870.88;;;-9.66;100.00
43503;BME280;29098;48.184;16.298;2024-01-10T06:21:39;100880.84;;;-9.41;100.00
43503;BME280;29098;48.184;16.298;2024-01-10T06:24:05;100910.63;;;-9.38;100.00
43503;BME280;29098;48.184;16.298;2024-01-10T06:26:31;100870.56;;;-9.34;100.00
43503;BME280;29098;48.184;16.298;2024-01-10T06:28:56;100909.59;;;-9.22;100.00
43503;BME280;29098;48.184;16.298;2024-01-10T06:31:22;100882.56;;;-9.43;100.00
43503;BME280;29098;48.184;16.298;2024-01-10T06:33:49;100884.31;;;-9.48;100.00
43503;BME280;29098;48.184;16.298;2024-01-10T06:36:14;100873.28;;;-9.50;100.00
43503;BME280;29098;48.184;16.298;2024-01-10T06:38:40;100881.78;;;-9.51;100.00
43503;BME280;29098;48.184;16.298;2024-01-10T06:41:10;100890.34;;;-9.57;100.00
43503;BME280;29098;48.184;16.298;2024-01-10T06:43:39;100848.63;;;-9.53;100.00
43503;BME280;29098;48.184;16.298;2024-01-10T06:46:06;100907.09;;;-9.29;100.00
43503;BME280;29098;48.184;16.298;2024-01-10T06:48:32;100873.28;;;-9.52;100.00
43503;BME280;29098;48.184;16.298;2024-01-10T06:50:58;100923.06;;;-9.09;100.00
43503;BME280;29098;48.184;16.298;2024-01-10T06:53:24;100900.19;;;-9.18;100.00
43503;BME280;29098;48.184;16.298;2024-01-10T06:55:50;100875.41;;;-9.13;100.00
43503;BME280;29098;48.184;16.298;2024-01-10T06:58:16;100947.56;;;-8.89;100.00
43503;BME280;29098;48.184;16.298;2024-01-10T07:00:41;100896.88;;;-9.28;100.00
43503;BME280;29098;48.184;16.298;2024-01-10T07:03:07;100942.66;;;-9.09;100.00
43503;BME280;29098;48.184;16.298;2024-01-10T07:05:33;100883.41;;;-9.44;100.00
43503;BME280;29098;48.184;16.298;2024-01-10T07:07:59;100880.78;;;-9.34;100.00
43503;BME280;29098;48.184;16.298;2024-01-10T07:10:28;100911.28;;;-9.19;100.00
43503;BME280;29098;48.184;16.298;2024-01-10T07:12:57;100927.44;;;-9.18;100.00
43503;BME280;29098;48.184;16.298;2024-01-10T07:15:22;100895.03;;;-9.15;100.00
43503;BME280;29098;48.184;16.298;2024-01-10T07:17:48;100948.50;;;-8.96;100.00
43503;BME280;29098;48.184;16.298;2024-01-10T07:20:14;100921.44;;;-9.16;100.00
43503;BME280;29098;48.184;16.298;2024-01-10T07:22:39;100951.06;;;-8.96;100.00
43503;BME280;29098;48.184;16.298;2024-01-10T07:25:10;100919.66;;;-9.06;100.00
43503;BME280;29098;48.184;16.298;2024-01-10T07:27:35;100914.44;;;-8.98;100.00
43503;BME280;29098;48.184;16.298;2024-01-10T07:30:06;100899.22;;;-9.08;100.00
43503;BME280;29098;48.184;16.298;2024-01-10T07:32:37;100872.91;;;-9.17;100.00
43503;BME280;29098;48.184;16.298;2024-01-10T07:35:02;100894.09;;;-9.08;100.00
43503;BME280;29098;48.184;16.298;2024-01-10T07:37:28;100909.19;;;-8.86;100.00
43503;BME280;29098;48.184;16.298;2024-01-10T07:39:53;100925.94;;;-8.63;100.00
43503;BME280;29098;48.184;16.298;2024-01-10T07:42:19;100918.28;;;-8.63;100.00
43503;BME280;29098;48.184;16.298;2024-01-10T07:44:44;100949.28;;;-8.23;100.00
43503;BME280;29098;48.184;16.298;2024-01-10T07:47:10;100910.31;;;-8.44;100.00
43503;BME280;29098;48.184;16.298;2024-01-10T07:49:35;100943.47;;;-8.35;100.00
43503;BME280;29098;48.184;16.298;2024-01-10T07:52:02;100931.28;;;-8.17;100.00
43503;BME280;29098;48.184;16.298;2024-01-10T07:54:29;100921.94;;;-8.21;100.00
43503;BME280;29098;48.184;16.298;2024-01-10T07:56:57;100921.84;;;-8.15;100.00
43503;BME280;29098;48.184;16.298;2024-01-10T07:59:23;100932.66;;;-7.94;100.00
43503;BME280;29098;48.184;16.298;2024-01-10T08:01:56;100934.50;;;-8.04;100.00
43503;BME280;29098;48.184;16.298;2024-01-10T08:04:24;100930.63;;;-7.75;100.00
43503;BME280;29098;48.184;16.298;2024-01-10T08:06:50;100918.78;;;-7.81;100.00
43503;BME280;29098;48.184;16.298;2024-01-10T08:09:16;100880.72;;;-8.03;100.00
43503;BME280;29098;48.184;16.298;2024-01-10T08:11:41;100950.94;;;-7.64;100.00
43503;BME280;29098;48.184;16.298;2024-01-10T08:14:06;100925.34;;;-7.64;100.00
43503;BME280;29098;48.184;16.298;2024-01-10T08:16:32;100922.00;;;-7.68;100.00
43503;BME280;29098;48.184;16.298;2024-01-10T08:18:57;100916.25;;;-7.84;100.00
43503;BME280;29098;48.184;16.298;2024-01-10T08:21:24;100915.19;;;-7.71;100.00
43503;BME280;29098;48.184;16.298;2024-01-10T08:23:50;100961.91;;;-7.56;100.00
43503;BME280;29098;48.184;16.298;2024-01-10T08:26:15;100910.59;;;-7.51;100.00
43503;BME280;29098;48.184;16.298;2024-01-10T08:28:41;100876.84;;;-7.74;100.00
43503;BME280;29098;48.184;16.298;2024-01-10T08:31:07;100928.53;;;-7.51;100.00
43503;BME280;29098;48.184;16.298;2024-01-10T08:33:33;100927.75;;;-7.55;100.00
43503;BME280;29098;48.184;16.298;2024-01-10T08:35:59;100970.34;;;-7.00;100.00
43503;BME280;29098;48.184;16.298;2024-01-10T08:38:24;100909.34;;;-7.29;100.00
43503;BME280;29098;48.184;16.298;2024-01-10T08:40:49;100990.06;;;-7.04;100.00
43503;BME280;29098;48.184;16.298;2024-01-10T08:43:15;100892.31;;;-7.31;100.00
43503;BME280;29098;48.184;16.298;2024-01-10T08:45:40;100950.19;;;-7.21;99.22
43503;BME280;29098;48.184;16.298;2024-01-10T08:48:06;100928.25;;;-6.89;95.61
43503;BME280;29098;48.184;16.298;2024-01-10T08:50:35;100944.31;;;-6.80;94.12
43503;BME280;29098;48.184;16.298;2024-01-10T08:53:01;100909.72;;;-7.03;94.31
43503;BME280;29098;48.184;16.298;2024-01-10T08:55:31;100928.28;;;-6.92;95.26
43503;BME280;29098;48.184;16.298;2024-01-10T08:57:56;100880.00;;;-7.13;94.40
43503;BME280;29098;48.184;16.298;2024-01-10T09:00:22;100944.31;;;-6.80;94.40
43503;BME280;29098;48.184;16.298;2024-01-10T09:02:49;100981.31;;;-6.50;95.45
43503;BME280;29098;48.184;16.298;2024-01-10T09:05:15;100927.19;;;-6.78;95.70
43503;BME280;29098;48.184;16.298;2024-01-10T09:07:41;100967.72;;;-6.53;94.90
43503;BME280;29098;48.184;16.298;2024-01-10T09:10:07;100975.88;;;-6.34;92.71
43503;BME280;29098;48.184;16.298;2024-01-10T09:12:34;100966.47;;;-6.34;92.28
43503;BME280;29098;48.184;16.298;2024-01-10T09:14:59;100959.09;;;-6.10;90.44
43503;BME280;29098;48.184;16.298;2024-01-10T09:17:26;100979.94;;;-5.87;89.95
43503;BME280;29098;48.184;16.298;2024-01-10T09:19:53;100917.13;;;-6.09;89.65
43503;BME280;29098;48.184;16.298;2024-01-10T09:22:18;100959.34;;;-5.84;89.05
43503;BME280;29098;48.184;16.298;2024-01-10T09:24:44;100958.03;;;-5.66;87.61
43503;BME280;29098;48.184;16.298;2024-01-10T09:27:10;100942.56;;;-5.63;86.68
43503;BME280;29098;48.184;16.298;2024-01-10T09:29:36;100989.06;;;-5.38;87.19
43503;BME280;29098;48.184;16.298;2024-01-10T09:32:01;100942.31;;;-5.52;86.67
43503;BME280;29098;48.184;16.298;2024-01-10T09:34:26;100910.53;;;-5.50;85.88
43503;BME280;29098;48.184;16.298;2024-01-10T09:36:52;100920.97;;;-5.23;85.17
43503;BME280;29098;48.184;16.298;2024-01-10T09:39:18;100964.78;;;-4.94;83.67
43503;BME280;29098;48.184;16.298;2024-01-10T09:41:49;100929.00;;;-5.02;83.79
43503;BME280;29098;48.184;16.298;2024-01-10T09:44:17;100908.06;;;-4.89;82.65
43503;BME280;29098;48.184;16.298;2024-01-10T09:46:49;100963.63;;;-4.52;81.31
43503;BME280;29098;48.184;16.298;2024-01-10T09:49:16;100946.97;;;-4.40;80.06
43503;BME280;29098;48.184;16.298;2024-01-10T09:51:42;100856.75;;;-4.94;80.41
43503;BME280;29098;48.184;16.298;2024-01-10T09:54:08;100857.72;;;-4.97;81.89
43503;BME280;29098;48.184;16.298;2024-01-10T09:56:33;100957.19;;;-4.37;79.54
43503;BME280;29098;48.184;16.298;2024-01-10T09:59:01;100903.75;;;-4.57;79.66
43503;BME280;29098;48.184;16.298;2024-01-10T10:01:30;100910.38;;;-4.50;79.56
43503;BME280;29098;48.184;16.298;2024-01-10T10:03:56;100922.72;;;-4.33;78.73
43503;BME280;29098;48.184;16.298;2024-01-10T10:06:22;100962.81;;;-3.95;78.63
43503;BME280;29098;48.184;16.298;2024-01-10T10:08:48;100919.94;;;-4.25;79.06
43503;BME280;29098;48.184;16.298;2024-01-10T10:11:13;100881.13;;;-4.19;79.64
43503;BME280;29098;48.184;16.298;2024-01-10T10:13:39;100855.97;;;-4.39;78.79
43503;BME280;29098;48.184;16.298;2024-01-10T10:16:08;100905.56;;;-4.05;79.97
43503;BME280;29098;48.184;16.298;2024-01-10T10:18:39;100886.47;;;-3.98;79.99
43503;BME280;29098;48.184;16.298;2024-01-10T10:21:14;100851.22;;;-3.96;78.85
43503;BME280;29098;48.184;16.298;2024-01-10T10:23:42;100865.19;;;-3.78;78.26
43503;BME280;29098;48.184;16.298;2024-01-10T10:26:15;100880.13;;;-3.62;78.05
43503;BME280;29098;48.184;16.298;2024-01-10T10:28:47;100933.53;;;-3.15;77.80
43503;BME280;29098;48.184;16.298;2024-01-10T10:31:14;100908.44;;;-3.10;77.50
43503;BME280;29098;48.184;16.298;2024-01-10T10:33:41;100903.31;;;-3.11;77.95
43503;BME280;29098;48.184;16.298;2024-01-10T10:36:08;100927.28;;;-2.84;77.36
43503;BME280;29098;48.184;16.298;2024-01-10T10:38:34;100878.16;;;-2.81;77.76
43503;BME280;29098;48.184;16.298;2024-01-10T10:41:00;100877.81;;;-2.49;77.22
43503;BME280;29098;48.184;16.298;2024-01-10T10:43:26;100911.28;;;-2.24;76.86
43503;BME280;29098;48.184;16.298;2024-01-10T10:45:51;100931.31;;;-2.07;75.46
43503;BME280;29098;48.184;16.298;2024-01-10T10:48:18;100889.88;;;-2.05;75.24
43503;BME280;29098;48.184;16.298;2024-01-10T10:50:54;100921.13;;;-1.89;74.58
43503;BME280;29098;48.184;16.298;2024-01-10T10:53:25;100846.47;;;-2.17;74.93
43503;BME280;29098;48.184;16.298;2024-01-10T10:55:53;100848.16;;;-1.96;74.14
43503;BME280;29098;48.184;16.298;2024-01-10T10:58:20;100827.47;;;-2.16;74.38
43503;BME280;29098;48.184;16.298;2024-01-10T11:00:47;100856.09;;;-1.80;74.87
43503;BME280;29098;48.184;16.298;2024-01-10T11:03:13;100799.38;;;-2.03;75.04
43503;BME280;29098;48.184;16.298;2024-01-10T11:05:40;100849.72;;;-1.50;74.77
43503;BME280;29098;48.184;16.298;2024-01-10T11:08:10;100856.63;;;-1.11;73.14
43503;BME280;29098;48.184;16.298;2024-01-10T11:10:39;100881.19;;;-0.81;72.98
43503;BME280;29098;48.184;16.298;2024-01-10T11:24:24;100828.31;;;-0.38;73.40
43503;BME280;29098;48.184;16.298;2024-01-10T11:26:50;100820.59;;;-0.05;72.40
43503;BME280;29098;48.184;16.298;2024-01-10T11:29:15;100844.72;;;-0.03;70.74
43503;BME280;29098;48.184;16.298;2024-01-10T11:31:41;100835.84;;;0.19;70.44
43503;BME280;29098;48.184;16.298;2024-01-10T11:34:08;100798.88;;;0.16;70.85
43503;BME280;29098;48.184;16.298;2024-01-10T11:36:33;100763.63;;;0.11;70.00
43503;BME280;29098;48.184;16.298;2024-01-10T11:39:02;100794.88;;;0.60;69.36
43503;BME280;29098;48.184;16.298;2024-01-10T11:41:33;100752.41;;;0.45;69.81
43503;BME280;29098;48.184;16.298;2024-01-10T11:46:42;100796.00;;;0.72;68.04
43503;BME280;29098;48.184;16.298;2024-01-10T11:49:10;100806.31;;;1.05;68.87
43503;BME280;29098;48.184;16.298;2024-01-10T11:51:42;100778.91;;;0.84;69.23
43503;BME280;29098;48.184;16.298;2024-01-10T11:54:08;100743.31;;;1.02;68.55
43503;BME280;29098;48.184;16.298;2024-01-10T11:56:41;100803.03;;;1.34;68.15
43503;BME280;29098;48.184;16.298;2024-01-10T11:59:11;100780.06;;;1.42;68.28
43503;BME280;29098;48.184;16.298;2024-01-10T12:01:38;100767.00;;;1.28;68.49
43503;BME280;29098;48.184;16.298;2024-01-10T12:04:05;100749.44;;;1.47;66.66
43503;BME280;29098;48.184;16.298;2024-01-10T12:06:31;100702.59;;;1.02;67.52
43503;BME280;29098;48.184;16.298;2024-01-10T12:08:57;100779.59;;;1.50;68.17
43503;BME280;29098;48.184;16.298;2024-01-10T12:11:24;100783.06;;;1.50;67.55
43503;BME280;29098;48.184;16.298;2024-01-10T12:13:50;100735.91;;;1.26;67.41
43503;BME280;29098;48.184;16.298;2024-01-10T12:16:18;100760.38;;;1.22;67.97
43503;BME280;29098;48.184;16.298;2024-01-10T12:18:44;100744.47;;;1.28;68.50
43503;BME280;29098;48.184;16.298;2024-01-10T12:21:09;100746.28;;;1.42;67.50
43503;BME280;29098;48.184;16.298;2024-01-10T12:23:38;100765.97;;;1.77;67.06
43503;BME280;29098;48.184;16.298;2024-01-10T12:26:10;100767.47;;;1.81;67.03
43503;BME280;29098;48.184;16.298;2024-01-10T12:28:39;100695.72;;;1.62;66.59
43503;BME280;29098;48.184;16.298;2024-01-10T12:31:06;100755.97;;;2.00;66.72
43503;BME280;29098;48.184;16.298;2024-01-10T12:33:37;100744.59;;;1.72;67.08
43503;BME280;29098;48.184;16.298;2024-01-10T12:36:07;100767.94;;;1.88;67.50
43503;BME280;29098;48.184;16.298;2024-01-10T12:38:33;100749.06;;;1.84;67.25
43503;BME280;29098;48.184;16.298;2024-01-10T12:41:03;100707.53;;;1.68;66.76
43503;BME280;29098;48.184;16.298;2024-01-10T12:43:29;100758.09;;;2.08;65.79